Adele Island, Australia
Current Conditions -  °F | °C
As of 9:00 PM on Sunday 23 Nov 2014 (Local Time) from YCIN Reporting Station
Clear Clear  
Wind Chill: 91°   Ceiling: Unl
Heat Index: 91°   Visibility: NA
Dew Point: 61°   Wind: 12mph
Humidity: 36%   Direction: 260°W
Pressure: 29.8"   Gusts: NA
Location:  15.5°S, 123.15°E
Report Text: YCIN 231300Z AUTO 26010KT //// // NCD 33/16 Q1009
Loading
Personal Weather Stations






























Interactive Weather Map New forecast layout! Learn more

10-Day Weather Forecast

Advertisements
Track Severe Weather on mobile